F/v_l'omerta — FHXG — position and weather

sailwx.info

Track history (hours):
 
Tides and Currents Weather Stations Pressure Air Temp Water Temp Dewpoint Dewpoint Depression Visibility Wind Speed Wind Dir Waves Ship Positions

F/v_l'omerta

Last reported at 2015-Jul-28 06:06 UTC. Time now 2015-Jul-29 02:38 UTC.
Position N 46°32' W 002°17'.

Length 18 m.

Type: Fishing. MMSI: 227903000.

Date/timePositionNaut miles runAvg speedWind from/ knotsBaromVisibWave heightAir tempDewpointWater temp
2015-Jul-28 06:06N 46°32' W 002°17'5 8.5
2015-Jul-28 05:33N 46°31' W 002°10'9 9.0
2015-Jul-28 04:33N 46°29' W 001°57'7 6.7
2015-Jul-28 03:33N 46°30' W 001°47'0 0.0
2015-Jul-28 02:34N 46°30' W 001°47'0 0.0
2015-Jul-28 01:33N 46°30' W 001°47'0 0.0
2015-Jul-28 00:33N 46°30' W 001°47'0 0.0
2015-Jul-27 23:34N 46°30' W 001°47'0 0.0
2015-Jul-27 22:33N 46°30' W 001°47'0 0.0
2015-Jul-27 21:33N 46°30' W 001°47'0 0.0
2015-Jul-27 20:34N 46°30' W 001°47'0 0.0
2015-Jul-27 19:34N 46°30' W 001°47'0 0.0
2015-Jul-27 18:34N 46°30' W 001°47'0 0.0
2015-Jul-27 17:33N 46°30' W 001°47'0 0.0
2015-Jul-27 16:33N 46°30' W 001°47'0 0.0
2015-Jul-27 15:33N 46°30' W 001°47'0 0.0
2015-Jul-27 14:34N 46°30' W 001°47'0 0.0
2015-Jul-27 13:33N 46°30' W 001°47'0 0.0
2015-Jul-27 12:33N 46°30' W 001°47'0 0.0
2015-Jul-27 11:33N 46°30' W 001°47'0 0.0
2015-Jul-27 10:33N 46°30' W 001°47'0 0.0
2015-Jul-27 09:34N 46°30' W 001°47'0 0.0
2015-Jul-27 08:33N 46°30' W 001°47'0 0.0
2015-Jul-27 07:34N 46°30' W 001°47'0 0.0
2015-Jul-27 06:34N 46°30' W 001°47'0 0.0
2015-Jul-27 05:34N 46°30' W 001°47'0 0.0
2015-Jul-27 04:33N 46°30' W 001°47'0 0.0
2015-Jul-27 03:34N 46°30' W 001°47'0 0.0
2015-Jul-27 02:33N 46°30' W 001°47'0 0.1
2015-Jul-27 01:34N 46°30' W 001°47'0 0.0
2015-Jul-27 00:34N 46°30' W 001°47'3 3.0
2015-Jul-26 23:33N 46°28' W 001°51'6 6.4
2015-Jul-26 22:33N 46°26' W 001°60'3 2.7
2015-Jul-26 21:34N 46°27' W 002°03'3 3.2
2015-Jul-26 20:34N 46°29' W 002°07'3 3.3
2015-Jul-26 19:31N 46°32' W 002°10'3 3.5
2015-Jul-26 18:33N 46°32' W 002°15'11 0.3
2015-Jul-25 11:20N 46°21' W 002°15'6 8.2
2015-Jul-25 10:33N 46°22' W 002°06'8 8.1
2015-Jul-25 09:33N 46°22' W 001°54'8 7.9
2015-Jul-25 08:33N 46°22' W 001°43'3 3.0
2015-Jul-25 07:33N 46°21' W 001°38'3 2.6
2015-Jul-25 06:32N 46°21' W 001°34'2 2.5
2015-Jul-25 05:33N 46°22' W 001°38'3 3.3
2015-Jul-25 04:33N 46°22' W 001°42'1 1.0
2015-Jul-25 03:33N 46°23' W 001°43'4 4.4
2015-Jul-25 02:33N 46°27' W 001°46'3 3.2
2015-Jul-25 01:33N 46°30' W 001°47'0 0.0
2015-Jul-25 00:33N 46°30' W 001°47'3 3.0
2015-Jul-24 23:33N 46°28' W 001°51'7 6.7
2015-Jul-24 22:33N 46°28' W 002°00'22 1.2
2015-Jul-24 03:31N 46°24' W 002°32'12 9.3
2015-Jul-24 02:16N 46°26' W 002°15'7 9.9
2015-Jul-24 01:33N 46°27' W 002°05'10 9.9
2015-Jul-24 00:33N 46°28' W 001°51'3 3.2
2015-Jul-23 23:33N 46°30' W 001°47'0 0.0
2015-Jul-23 22:33N 46°30' W 001°47'0 0.0
2015-Jul-23 21:33N 46°30' W 001°47'0 0.0
2015-Jul-23 20:33N 46°30' W 001°47'0 0.0
2015-Jul-23 19:33N 46°30' W 001°47'0 0.0
2015-Jul-23 18:33N 46°30' W 001°47'0 0.0
2015-Jul-23 17:33N 46°30' W 001°47'0 0.0
2015-Jul-23 16:33N 46°30' W 001°47'0 0.0
2015-Jul-23 15:33N 46°30' W 001°47'0 0.0
2015-Jul-23 14:33N 46°30' W 001°47'0 0.0
2015-Jul-23 13:33N 46°30' W 001°47'0 0.0
2015-Jul-23 12:33N 46°30' W 001°47'0 0.0
2015-Jul-23 11:33N 46°30' W 001°47'0 0.0
2015-Jul-23 10:33N 46°30' W 001°47'0 0.0
2015-Jul-23 09:33N 46°30' W 001°47'0 0.0
2015-Jul-23 08:33N 46°30' W 001°47'0 0.0
2015-Jul-23 07:33N 46°30' W 001°47'0 0.0
2015-Jul-23 06:33N 46°30' W 001°47'0 0.0
2015-Jul-23 05:33N 46°30' W 001°47'0 0.0
2015-Jul-23 04:33N 46°30' W 001°47'0 0.0
2015-Jul-23 03:33N 46°30' W 001°47'0 0.0
2015-Jul-23 02:33N 46°30' W 001°47'0 0.0
2015-Jul-23 01:33N 46°30' W 001°47'0 0.0
2015-Jul-23 00:33N 46°30' W 001°47'0 0.0
2015-Jul-22 23:33N 46°30' W 001°47'0 0.0
2015-Jul-22 22:33N 46°30' W 001°47'0 0.0
2015-Jul-22 21:33N 46°30' W 001°47'0 0.0
2015-Jul-22 20:33N 46°30' W 001°47'0 0.0
2015-Jul-22 19:33N 46°30' W 001°47'0 0.0
2015-Jul-22 18:33N 46°30' W 001°47'0 0.0
2015-Jul-22 17:33N 46°30' W 001°47'0 0.0
2015-Jul-22 16:33N 46°30' W 001°47'0 0.0
2015-Jul-22 15:33N 46°30' W 001°47'0 0.0
2015-Jul-22 14:33N 46°30' W 001°47'0 0.0
2015-Jul-22 13:33N 46°30' W 001°47'0 0.0
2015-Jul-22 12:33N 46°30' W 001°47'0 0.0
2015-Jul-22 11:33N 46°30' W 001°47'0 0.0
2015-Jul-22 10:33N 46°30' W 001°47'0 0.0
2015-Jul-22 09:33N 46°30' W 001°47'0 0.0
2015-Jul-22 08:33N 46°30' W 001°47'0 0.0
2015-Jul-22 07:33N 46°30' W 001°47'0 0.0
2015-Jul-22 06:33N 46°30' W 001°47'0 0.0
2015-Jul-22 05:33N 46°30' W 001°47'0 0.0
2015-Jul-22 04:33N 46°30' W 001°47'0 0.0
2015-Jul-22 03:33N 46°30' W 001°47'0 0.0
2015-Jul-22 02:33N 46°30' W 001°47'0 0.0
2015-Jul-22 01:33N 46°30' W 001°47'0 0.0
2015-Jul-22 00:33N 46°30' W 001°47'0 0.0
2015-Jul-21 23:33N 46°30' W 001°47'0 0.0
2015-Jul-21 22:33N 46°30' W 001°47'0 0.0
2015-Jul-21 21:33N 46°30' W 001°47'0 0.0
2015-Jul-21 20:33N 46°30' W 001°47'0 0.0
2015-Jul-21 19:33N 46°30' W 001°47'0 0.0
2015-Jul-21 18:33N 46°30' W 001°47'0 0.0
2015-Jul-21 17:33N 46°30' W 001°47'0 0.0
2015-Jul-21 16:33N 46°30' W 001°47'0 0.0
2015-Jul-21 15:33N 46°30' W 001°47'0 0.0
2015-Jul-21 14:33N 46°30' W 001°47'0 0.0
2015-Jul-21 13:33N 46°30' W 001°47'0 0.0
2015-Jul-21 12:33N 46°30' W 001°47'0 0.0
2015-Jul-21 11:33N 46°30' W 001°47'0 0.0
2015-Jul-21 10:33N 46°30' W 001°47'0 0.0
2015-Jul-21 09:33N 46°30' W 001°47'0 0.0
2015-Jul-21 08:33N 46°30' W 001°47'0 0.0
2015-Jul-21 07:33N 46°30' W 001°47'0 0.0
2015-Jul-21 06:33N 46°30' W 001°47'0 0.0
2015-Jul-21 05:33N 46°30' W 001°47'0 0.0
2015-Jul-21 04:33N 46°30' W 001°47'0 0.0
2015-Jul-21 03:33N 46°30' W 001°47'0 0.0
2015-Jul-21 02:33N 46°30' W 001°47'0 0.0
2015-Jul-21 01:33N 46°30' W 001°47'0 0.0
2015-Jul-21 00:33N 46°30' W 001°47'0 0.0
2015-Jul-20 23:33N 46°30' W 001°47'0 0.0
2015-Jul-20 22:33N 46°30' W 001°47'0 0.0
2015-Jul-20 21:33N 46°30' W 001°47'0 0.0
2015-Jul-20 20:33N 46°30' W 001°47'0 0.0
2015-Jul-20 19:33N 46°30' W 001°47'0 0.0
2015-Jul-20 18:33N 46°30' W 001°47'0 0.0
2015-Jul-20 17:33N 46°30' W 001°47'0 0.0
2015-Jul-20 16:33N 46°30' W 001°47'0 0.0
2015-Jul-20 15:33N 46°30' W 001°47'0 0.0
2015-Jul-20 14:33N 46°30' W 001°47'0 0.0
2015-Jul-20 13:33N 46°30' W 001°47'0 0.0
2015-Jul-20 12:33N 46°30' W 001°47'0 0.0
2015-Jul-20 11:33N 46°30' W 001°47'0 0.0
2015-Jul-20 10:33N 46°30' W 001°47'0 0.0
2015-Jul-20 09:33N 46°30' W 001°47'0 0.0
2015-Jul-20 08:33N 46°30' W 001°47'0 0.0
2015-Jul-20 07:33N 46°30' W 001°47'0 0.0
2015-Jul-20 06:33N 46°30' W 001°47'0 0.0
2015-Jul-20 05:33N 46°30' W 001°47'0 0.0
2015-Jul-20 04:33N 46°30' W 001°47'0 0.0
2015-Jul-20 03:33N 46°30' W 001°47'0 0.0
2015-Jul-20 02:33N 46°30' W 001°47'0 0.0
2015-Jul-20 01:33N 46°30' W 001°47'0 0.0
2015-Jul-20 00:33N 46°30' W 001°47'0 0.0
2015-Jul-19 23:33N 46°30' W 001°47'0 0.0
2015-Jul-19 22:33N 46°30' W 001°47'0 0.0
2015-Jul-19 21:33N 46°30' W 001°47'0 0.0
2015-Jul-19 20:33N 46°30' W 001°47'0 0.0
2015-Jul-19 19:33N 46°30' W 001°47'0 0.0
2015-Jul-19 18:33N 46°30' W 001°47'0 0.0
2015-Jul-19 17:33N 46°30' W 001°47'0 0.0
2015-Jul-19 16:33N 46°30' W 001°47'0 0.0
2015-Jul-19 15:33N 46°30' W 001°47'0 0.0
2015-Jul-19 14:33N 46°30' W 001°47'0 0.0
2015-Jul-19 13:33N 46°30' W 001°47'0 0.0
2015-Jul-19 12:33N 46°30' W 001°47'0 0.0
2015-Jul-19 11:33N 46°30' W 001°47'0 0.0
2015-Jul-19 10:33N 46°30' W 001°47'0 0.0
2015-Jul-19 09:33N 46°30' W 001°47'0 0.0
2015-Jul-19 08:33N 46°30' W 001°47'0 0.0
2015-Jul-19 07:33N 46°30' W 001°47'0 0.0
2015-Jul-19 06:33N 46°30' W 001°47'0 0.0
2015-Jul-19 05:33N 46°30' W 001°47'0 0.0
2015-Jul-19 04:33N 46°30' W 001°47'0 0.0
2015-Jul-19 00:33N 46°30' W 001°47'0 0.0
2015-Jul-18 23:33N 46°30' W 001°47'0 0.0
2015-Jul-18 22:33N 46°30' W 001°47'0 0.0
2015-Jul-18 21:33N 46°30' W 001°47'0 0.0
2015-Jul-18 20:33N 46°30' W 001°47'0 0.0
2015-Jul-18 19:33N 46°30' W 001°47'0 0.0
2015-Jul-18 18:33N 46°30' W 001°47'0 0.0
2015-Jul-18 17:33N 46°30' W 001°47'0 0.0
2015-Jul-18 16:33N 46°30' W 001°47'0 0.0
2015-Jul-18 15:33N 46°30' W 001°47'0 0.0
2015-Jul-18 14:33N 46°30' W 001°47'0 0.0
2015-Jul-18 13:33N 46°30' W 001°47'0 0.0
2015-Jul-18 12:33N 46°30' W 001°47'0 0.0
2015-Jul-18 11:33N 46°30' W 001°47'0 0.0
2015-Jul-18 10:33N 46°30' W 001°47'0 0.0
2015-Jul-18 09:33N 46°30' W 001°47'0 0.0
2015-Jul-18 08:33N 46°30' W 001°47'0 0.0
2015-Jul-18 07:33N 46°30' W 001°47'0 0.0
2015-Jul-18 06:33N 46°30' W 001°47'  
Track history (hours):
 
Tides and Currents Weather Stations Pressure Air Temp Water Temp Dewpoint Dewpoint Depression Visibility Wind Speed Wind Dir Waves Ship Positions

F/v_l'omerta

Last reported at 2015-Jul-28 06:06 UTC. Time now 2015-Jul-29 02:38 UTC.
Position N 46°32' W 002°17'.

Length 18 m.

Type: Fishing. MMSI: 227903000.

Date/timePositionNaut miles runAvg speedWind from/ knotsBaromVisibWave heightAir tempDewpointWater temp
2015-Jul-28 06:06N 46°32' W 002°17'5 8.5
2015-Jul-28 05:33N 46°31' W 002°10'9 9.0
2015-Jul-28 04:33N 46°29' W 001°57'7 6.7
2015-Jul-28 03:33N 46°30' W 001°47'0 0.0
2015-Jul-28 02:34N 46°30' W 001°47'0 0.0
2015-Jul-28 01:33N 46°30' W 001°47'0 0.0
2015-Jul-28 00:33N 46°30' W 001°47'0 0.0
2015-Jul-27 23:34N 46°30' W 001°47'0 0.0
2015-Jul-27 22:33N 46°30' W 001°47'0 0.0
2015-Jul-27 21:33N 46°30' W 001°47'0 0.0
2015-Jul-27 20:34N 46°30' W 001°47'0 0.0
2015-Jul-27 19:34N 46°30' W 001°47'0 0.0
2015-Jul-27 18:34N 46°30' W 001°47'0 0.0
2015-Jul-27 17:33N 46°30' W 001°47'0 0.0
2015-Jul-27 16:33N 46°30' W 001°47'0 0.0
2015-Jul-27 15:33N 46°30' W 001°47'0 0.0
2015-Jul-27 14:34N 46°30' W 001°47'0 0.0
2015-Jul-27 13:33N 46°30' W 001°47'0 0.0
2015-Jul-27 12:33N 46°30' W 001°47'0 0.0
2015-Jul-27 11:33N 46°30' W 001°47'0 0.0
2015-Jul-27 10:33N 46°30' W 001°47'0 0.0
2015-Jul-27 09:34N 46°30' W 001°47'0 0.0
2015-Jul-27 08:33N 46°30' W 001°47'0 0.0
2015-Jul-27 07:34N 46°30' W 001°47'0 0.0
2015-Jul-27 06:34N 46°30' W 001°47'0 0.0
2015-Jul-27 05:34N 46°30' W 001°47'0 0.0
2015-Jul-27 04:33N 46°30' W 001°47'0 0.0
2015-Jul-27 03:34N 46°30' W 001°47'0 0.0
2015-Jul-27 02:33N 46°30' W 001°47'0 0.1
2015-Jul-27 01:34N 46°30' W 001°47'0 0.0
2015-Jul-27 00:34N 46°30' W 001°47'3 3.0
2015-Jul-26 23:33N 46°28' W 001°51'6 6.4
2015-Jul-26 22:33N 46°26' W 001°60'3 2.7
2015-Jul-26 21:34N 46°27' W 002°03'3 3.2
2015-Jul-26 20:34N 46°29' W 002°07'3 3.3
2015-Jul-26 19:31N 46°32' W 002°10'3 3.5
2015-Jul-26 18:33N 46°32' W 002°15'11 0.3
2015-Jul-25 11:20N 46°21' W 002°15'6 8.2
2015-Jul-25 10:33N 46°22' W 002°06'8 8.1
2015-Jul-25 09:33N 46°22' W 001°54'8 7.9
2015-Jul-25 08:33N 46°22' W 001°43'3 3.0
2015-Jul-25 07:33N 46°21' W 001°38'3 2.6
2015-Jul-25 06:32N 46°21' W 001°34'2 2.5
2015-Jul-25 05:33N 46°22' W 001°38'3 3.3
2015-Jul-25 04:33N 46°22' W 001°42'1 1.0
2015-Jul-25 03:33N 46°23' W 001°43'4 4.4
2015-Jul-25 02:33N 46°27' W 001°46'3 3.2
2015-Jul-25 01:33N 46°30' W 001°47'0 0.0
2015-Jul-25 00:33N 46°30' W 001°47'3 3.0
2015-Jul-24 23:33N 46°28' W 001°51'7 6.7
2015-Jul-24 22:33N 46°28' W 002°00'22 1.2
2015-Jul-24 03:31N 46°24' W 002°32'12 9.3
2015-Jul-24 02:16N 46°26' W 002°15'7 9.9
2015-Jul-24 01:33N 46°27' W 002°05'10 9.9
2015-Jul-24 00:33N 46°28' W 001°51'3 3.2
2015-Jul-23 23:33N 46°30' W 001°47'0 0.0
2015-Jul-23 22:33N 46°30' W 001°47'0 0.0
2015-Jul-23 21:33N 46°30' W 001°47'0 0.0
2015-Jul-23 20:33N 46°30' W 001°47'0 0.0
2015-Jul-23 19:33N 46°30' W 001°47'0 0.0
2015-Jul-23 18:33N 46°30' W 001°47'0 0.0
2015-Jul-23 17:33N 46°30' W 001°47'0 0.0
2015-Jul-23 16:33N 46°30' W 001°47'0 0.0
2015-Jul-23 15:33N 46°30' W 001°47'0 0.0
2015-Jul-23 14:33N 46°30' W 001°47'0 0.0
2015-Jul-23 13:33N 46°30' W 001°47'0 0.0
2015-Jul-23 12:33N 46°30' W 001°47'0 0.0
2015-Jul-23 11:33N 46°30' W 001°47'0 0.0
2015-Jul-23 10:33N 46°30' W 001°47'0 0.0
2015-Jul-23 09:33N 46°30' W 001°47'0 0.0
2015-Jul-23 08:33N 46°30' W 001°47'0 0.0
2015-Jul-23 07:33N 46°30' W 001°47'0 0.0
2015-Jul-23 06:33N 46°30' W 001°47'0 0.0
2015-Jul-23 05:33N 46°30' W 001°47'0 0.0
2015-Jul-23 04:33N 46°30' W 001°47'0 0.0
2015-Jul-23 03:33N 46°30' W 001°47'0 0.0
2015-Jul-23 02:33N 46°30' W 001°47'0 0.0
2015-Jul-23 01:33N 46°30' W 001°47'0 0.0
2015-Jul-23 00:33N 46°30' W 001°47'0 0.0
2015-Jul-22 23:33N 46°30' W 001°47'0 0.0
2015-Jul-22 22:33N 46°30' W 001°47'0 0.0
2015-Jul-22 21:33N 46°30' W 001°47'0 0.0
2015-Jul-22 20:33N 46°30' W 001°47'0 0.0
2015-Jul-22 19:33N 46°30' W 001°47'0 0.0
2015-Jul-22 18:33N 46°30' W 001°47'0 0.0
2015-Jul-22 17:33N 46°30' W 001°47'0 0.0
2015-Jul-22 16:33N 46°30' W 001°47'0 0.0
2015-Jul-22 15:33N 46°30' W 001°47'0 0.0
2015-Jul-22 14:33N 46°30' W 001°47'0 0.0
2015-Jul-22 13:33N 46°30' W 001°47'0 0.0
2015-Jul-22 12:33N 46°30' W 001°47'0 0.0
2015-Jul-22 11:33N 46°30' W 001°47'0 0.0
2015-Jul-22 10:33N 46°30' W 001°47'0 0.0
2015-Jul-22 09:33N 46°30' W 001°47'0 0.0
2015-Jul-22 08:33N 46°30' W 001°47'0 0.0
2015-Jul-22 07:33N 46°30' W 001°47'0 0.0
2015-Jul-22 06:33N 46°30' W 001°47'0 0.0
2015-Jul-22 05:33N 46°30' W 001°47'0 0.0
2015-Jul-22 04:33N 46°30' W 001°47'0 0.0
2015-Jul-22 03:33N 46°30' W 001°47'0 0.0
2015-Jul-22 02:33N 46°30' W 001°47'0 0.0
2015-Jul-22 01:33N 46°30' W 001°47'0 0.0
2015-Jul-22 00:33N 46°30' W 001°47'0 0.0
2015-Jul-21 23:33N 46°30' W 001°47'0 0.0
2015-Jul-21 22:33N 46°30' W 001°47'0 0.0
2015-Jul-21 21:33N 46°30' W 001°47'0 0.0
2015-Jul-21 20:33N 46°30' W 001°47'0 0.0
2015-Jul-21 19:33N 46°30' W 001°47'0 0.0
2015-Jul-21 18:33N 46°30' W 001°47'0 0.0
2015-Jul-21 17:33N 46°30' W 001°47'0 0.0
2015-Jul-21 16:33N 46°30' W 001°47'0 0.0
2015-Jul-21 15:33N 46°30' W 001°47'0 0.0
2015-Jul-21 14:33N 46°30' W 001°47'0 0.0
2015-Jul-21 13:33N 46°30' W 001°47'0 0.0
2015-Jul-21 12:33N 46°30' W 001°47'0 0.0
2015-Jul-21 11:33N 46°30' W 001°47'0 0.0
2015-Jul-21 10:33N 46°30' W 001°47'0 0.0
2015-Jul-21 09:33N 46°30' W 001°47'0 0.0
2015-Jul-21 08:33N 46°30' W 001°47'0 0.0
2015-Jul-21 07:33N 46°30' W 001°47'0 0.0
2015-Jul-21 06:33N 46°30' W 001°47'0 0.0
2015-Jul-21 05:33N 46°30' W 001°47'0 0.0
2015-Jul-21 04:33N 46°30' W 001°47'0 0.0
2015-Jul-21 03:33N 46°30' W 001°47'0 0.0
2015-Jul-21 02:33N 46°30' W 001°47'0 0.0
2015-Jul-21 01:33N 46°30' W 001°47'0 0.0
2015-Jul-21 00:33N 46°30' W 001°47'0 0.0
2015-Jul-20 23:33N 46°30' W 001°47'0 0.0
2015-Jul-20 22:33N 46°30' W 001°47'0 0.0
2015-Jul-20 21:33N 46°30' W 001°47'0 0.0
2015-Jul-20 20:33N 46°30' W 001°47'0 0.0
2015-Jul-20 19:33N 46°30' W 001°47'0 0.0
2015-Jul-20 18:33N 46°30' W 001°47'0 0.0
2015-Jul-20 17:33N 46°30' W 001°47'0 0.0
2015-Jul-20 16:33N 46°30' W 001°47'0 0.0
2015-Jul-20 15:33N 46°30' W 001°47'0 0.0
2015-Jul-20 14:33N 46°30' W 001°47'0 0.0
2015-Jul-20 13:33N 46°30' W 001°47'0 0.0
2015-Jul-20 12:33N 46°30' W 001°47'0 0.0
2015-Jul-20 11:33N 46°30' W 001°47'0 0.0
2015-Jul-20 10:33N 46°30' W 001°47'0 0.0
2015-Jul-20 09:33N 46°30' W 001°47'0 0.0
2015-Jul-20 08:33N 46°30' W 001°47'0 0.0
2015-Jul-20 07:33N 46°30' W 001°47'0 0.0
2015-Jul-20 06:33N 46°30' W 001°47'0 0.0
2015-Jul-20 05:33N 46°30' W 001°47'0 0.0
2015-Jul-20 04:33N 46°30' W 001°47'0 0.0
2015-Jul-20 03:33N 46°30' W 001°47'0 0.0
2015-Jul-20 02:33N 46°30' W 001°47'0 0.0
2015-Jul-20 01:33N 46°30' W 001°47'0 0.0
2015-Jul-20 00:33N 46°30' W 001°47'0 0.0
2015-Jul-19 23:33N 46°30' W 001°47'0 0.0
2015-Jul-19 22:33N 46°30' W 001°47'0 0.0
2015-Jul-19 21:33N 46°30' W 001°47'0 0.0
2015-Jul-19 20:33N 46°30' W 001°47'0 0.0
2015-Jul-19 19:33N 46°30' W 001°47'0 0.0
2015-Jul-19 18:33N 46°30' W 001°47'0 0.0
2015-Jul-19 17:33N 46°30' W 001°47'0 0.0
2015-Jul-19 16:33N 46°30' W 001°47'0 0.0
2015-Jul-19 15:33N 46°30' W 001°47'0 0.0
2015-Jul-19 14:33N 46°30' W 001°47'0 0.0
2015-Jul-19 13:33N 46°30' W 001°47'0 0.0
2015-Jul-19 12:33N 46°30' W 001°47'0 0.0
2015-Jul-19 11:33N 46°30' W 001°47'0 0.0
2015-Jul-19 10:33N 46°30' W 001°47'0 0.0
2015-Jul-19 09:33N 46°30' W 001°47'0 0.0
2015-Jul-19 08:33N 46°30' W 001°47'0 0.0
2015-Jul-19 07:33N 46°30' W 001°47'0 0.0
2015-Jul-19 06:33N 46°30' W 001°47'0 0.0
2015-Jul-19 05:33N 46°30' W 001°47'0 0.0
2015-Jul-19 04:33N 46°30' W 001°47'0 0.0
2015-Jul-19 00:33N 46°30' W 001°47'0 0.0
2015-Jul-18 23:33N 46°30' W 001°47'0 0.0
2015-Jul-18 22:33N 46°30' W 001°47'0 0.0
2015-Jul-18 21:33N 46°30' W 001°47'0 0.0
2015-Jul-18 20:33N 46°30' W 001°47'0 0.0
2015-Jul-18 19:33N 46°30' W 001°47'0 0.0
2015-Jul-18 18:33N 46°30' W 001°47'0 0.0
2015-Jul-18 17:33N 46°30' W 001°47'0 0.0
2015-Jul-18 16:33N 46°30' W 001°47'0 0.0
2015-Jul-18 15:33N 46°30' W 001°47'0 0.0
2015-Jul-18 14:33N 46°30' W 001°47'0 0.0
2015-Jul-18 13:33N 46°30' W 001°47'0 0.0
2015-Jul-18 12:33N 46°30' W 001°47'0 0.0
2015-Jul-18 11:33N 46°30' W 001°47'0 0.0
2015-Jul-18 10:33N 46°30' W 001°47'0 0.0
2015-Jul-18 09:33N 46°30' W 001°47'0 0.0
2015-Jul-18 08:33N 46°30' W 001°47'0 0.0
2015-Jul-18 07:33N 46°30' W 001°47'0 0.0
2015-Jul-18 06:33N 46°30' W 001°47'  

Dump ship's entire track history